sensor_id;sensor_type;location;lat;lon;timestamp;temperature;humidity
25554;DHT22;13446;50.926;5.332;2023-04-24T00:00:16;11.50;99.90
25554;DHT22;13446;50.926;5.332;2023-04-24T00:02:43;11.40;99.90
25554;DHT22;13446;50.926;5.332;2023-04-24T00:05:15;11.40;99.90
25554;DHT22;13446;50.926;5.332;2023-04-24T00:07:41;11.40;99.90
25554;DHT22;13446;50.926;5.332;2023-04-24T00:10:07;11.50;99.90
25554;DHT22;13446;50.926;5.332;2023-04-24T00:12:32;11.40;99.90
25554;DHT22;13446;50.926;5.332;2023-04-24T00:14:58;11.30;99.90
25554;DHT22;13446;50.926;5.332;2023-04-24T00:17:24;11.40;99.90
25554;DHT22;13446;50.926;5.332;2023-04-24T00:19:49;11.50;99.90
25554;DHT22;13446;50.926;5.332;2023-04-24T00:22:25;11.40;99.90
25554;DHT22;13446;50.926;5.332;2023-04-24T00:24:51;11.40;99.90
25554;DHT22;13446;50.926;5.332;2023-04-24T00:27:16;11.50;99.90
25554;DHT22;13446;50.926;5.332;2023-04-24T00:29:42;11.40;99.90
25554;DHT22;13446;50.926;5.332;2023-04-24T00:32:07;11.40;99.90
25554;DHT22;13446;50.926;5.332;2023-04-24T00:34:33;11.40;99.90
25554;DHT22;13446;50.926;5.332;2023-04-24T00:36:58;11.50;99.90
25554;DHT22;13446;50.926;5.332;2023-04-24T00:39:24;11.40;99.90
25554;DHT22;13446;50.926;5.332;2023-04-24T00:41:50;11.40;99.90
25554;DHT22;13446;50.926;5.332;2023-04-24T00:44:16;11.30;99.90
25554;DHT22;13446;50.926;5.332;2023-04-24T00:46:42;11.30;99.90
25554;DHT22;13446;50.926;5.332;2023-04-24T00:49:07;11.30;99.90
25554;DHT22;13446;50.926;5.332;2023-04-24T00:51:33;11.30;99.90
25554;DHT22;13446;50.926;5.332;2023-04-24T00:54:00;11.40;99.90
25554;DHT22;13446;50.926;5.332;2023-04-24T00:56:25;11.30;99.90
25554;DHT22;13446;50.926;5.332;2023-04-24T00:58:51;11.40;99.90
25554;DHT22;13446;50.926;5.332;2023-04-24T01:01:17;11.30;99.90
25554;DHT22;13446;50.926;5.332;2023-04-24T01:03:46;11.20;99.90
25554;DHT22;13446;50.926;5.332;2023-04-24T01:06:11;11.20;99.90
25554;DHT22;13446;50.926;5.332;2023-04-24T01:08:37;11.30;99.90
25554;DHT22;13446;50.926;5.332;2023-04-24T01:11:04;11.30;99.90
25554;DHT22;13446;50.926;5.332;2023-04-24T01:13:30;11.40;99.90
25554;DHT22;13446;50.926;5.332;2023-04-24T01:15:56;11.40;99.90
25554;DHT22;13446;50.926;5.332;2023-04-24T01:18:22;11.30;99.90
25554;DHT22;13446;50.926;5.332;2023-04-24T01:20:47;11.30;99.90
25554;DHT22;13446;50.926;5.332;2023-04-24T01:23:14;11.30;99.90
25554;DHT22;13446;50.926;5.332;2023-04-24T01:25:40;11.40;99.90
25554;DHT22;13446;50.926;5.332;2023-04-24T01:28:06;11.30;99.90
25554;DHT22;13446;50.926;5.332;2023-04-24T01:30:33;11.20;99.90
25554;DHT22;13446;50.926;5.332;2023-04-24T01:32:58;11.20;99.90
25554;DHT22;13446;50.926;5.332;2023-04-24T01:35:24;11.10;99.90
25554;DHT22;13446;50.926;5.332;2023-04-24T01:37:50;11.10;99.90
25554;DHT22;13446;50.926;5.332;2023-04-24T01:40:15;11.20;99.90
25554;DHT22;13446;50.926;5.332;2023-04-24T01:42:41;11.20;99.90
25554;DHT22;13446;50.926;5.332;2023-04-24T01:45:07;11.00;99.90
25554;DHT22;13446;50.926;5.332;2023-04-24T01:47:34;11.10;99.90
25554;DHT22;13446;50.926;5.332;2023-04-24T01:50:00;11.20;99.90
25554;DHT22;13446;50.926;5.332;2023-04-24T01:52:26;11.30;99.90
25554;DHT22;13446;50.926;5.332;2023-04-24T01:54:52;11.30;99.90
25554;DHT22;13446;50.926;5.332;2023-04-24T01:57:18;11.30;99.90
25554;DHT22;13446;50.926;5.332;2023-04-24T01:59:44;11.30;99.90
25554;DHT22;13446;50.926;5.332;2023-04-24T02:02:09;11.30;99.90
25554;DHT22;13446;50.926;5.332;2023-04-24T02:04:35;11.20;99.90
25554;DHT22;13446;50.926;5.332;2023-04-24T02:07:00;11.20;99.90
25554;DHT22;13446;50.926;5.332;2023-04-24T02:09:26;11.10;99.90
25554;DHT22;13446;50.926;5.332;2023-04-24T02:11:51;11.20;99.90
25554;DHT22;13446;50.926;5.332;2023-04-24T02:14:17;11.10;99.90
25554;DHT22;13446;50.926;5.332;2023-04-24T02:16:42;10.90;99.90
25554;DHT22;13446;50.926;5.332;2023-04-24T02:19:09;11.00;99.90
25554;DHT22;13446;50.926;5.332;2023-04-24T02:21:34;10.90;99.90
25554;DHT22;13446;50.926;5.332;2023-04-24T02:24:00;10.80;99.90
25554;DHT22;13446;50.926;5.332;2023-04-24T02:26:26;10.80;99.90
25554;DHT22;13446;50.926;5.332;2023-04-24T02:28:51;10.80;99.90
25554;DHT22;13446;50.926;5.332;2023-04-24T02:31:17;10.80;99.90
25554;DHT22;13446;50.926;5.332;2023-04-24T02:33:42;10.70;99.90
25554;DHT22;13446;50.926;5.332;2023-04-24T02:36:08;10.80;99.90
25554;DHT22;13446;50.926;5.332;2023-04-24T02:38:34;10.70;99.90
25554;DHT22;13446;50.926;5.332;2023-04-24T02:41:00;10.70;99.90
25554;DHT22;13446;50.926;5.332;2023-04-24T02:43:26;10.70;99.90
25554;DHT22;13446;50.926;5.332;2023-04-24T02:45:51;10.70;99.90
25554;DHT22;13446;50.926;5.332;2023-04-24T02:48:17;10.70;99.90
25554;DHT22;13446;50.926;5.332;2023-04-24T02:50:42;10.70;99.90
25554;DHT22;13446;50.926;5.332;2023-04-24T02:53:08;10.70;99.90
25554;DHT22;13446;50.926;5.332;2023-04-24T02:55:33;10.70;99.90
25554;DHT22;13446;50.926;5.332;2023-04-24T02:57:59;10.80;99.90
25554;DHT22;13446;50.926;5.332;2023-04-24T03:00:25;10.80;99.90
25554;DHT22;13446;50.926;5.332;2023-04-24T03:02:50;10.80;99.90
25554;DHT22;13446;50.926;5.332;2023-04-24T03:05:16;10.70;99.90
25554;DHT22;13446;50.926;5.332;2023-04-24T03:07:42;10.70;99.90
25554;DHT22;13446;50.926;5.332;2023-04-24T03:10:07;10.70;99.90
25554;DHT22;13446;50.926;5.332;2023-04-24T03:12:33;10.70;99.90
25554;DHT22;13446;50.926;5.332;2023-04-24T03:14:59;10.70;99.90
25554;DHT22;13446;50.926;5.332;2023-04-24T03:17:24;10.70;99.90
25554;DHT22;13446;50.926;5.332;2023-04-24T03:19:50;10.70;99.90
25554;DHT22;13446;50.926;5.332;2023-04-24T03:22:15;10.70;99.90
25554;DHT22;13446;50.926;5.332;2023-04-24T03:24:41;10.60;99.90
25554;DHT22;13446;50.926;5.332;2023-04-24T03:27:06;10.60;99.90
25554;DHT22;13446;50.926;5.332;2023-04-24T03:29:32;10.50;99.90
25554;DHT22;13446;50.926;5.332;2023-04-24T03:31:57;10.50;99.90
25554;DHT22;13446;50.926;5.332;2023-04-24T03:34:23;10.40;99.90
25554;DHT22;13446;50.926;5.332;2023-04-24T03:36:49;10.40;99.90
25554;DHT22;13446;50.926;5.332;2023-04-24T03:39:14;10.40;99.90
25554;DHT22;13446;50.926;5.332;2023-04-24T03:41:40;10.40;99.90
25554;DHT22;13446;50.926;5.332;2023-04-24T03:44:05;10.50;99.90
25554;DHT22;13446;50.926;5.332;2023-04-24T03:46:31;10.40;99.90
25554;DHT22;13446;50.926;5.332;2023-04-24T03:48:57;10.50;99.90
25554;DHT22;13446;50.926;5.332;2023-04-24T03:51:22;10.50;99.90
25554;DHT22;13446;50.926;5.332;2023-04-24T03:53:48;10.50;99.90
25554;DHT22;13446;50.926;5.332;2023-04-24T03:56:14;10.40;99.90
25554;DHT22;13446;50.926;5.332;2023-04-24T03:58:39;10.40;99.90
25554;DHT22;13446;50.926;5.332;2023-04-24T04:01:05;10.40;99.90
25554;DHT22;13446;50.926;5.332;2023-04-24T04:03:30;10.40;99.90
25554;DHT22;13446;50.926;5.332;2023-04-24T04:05:56;10.40;99.90
25554;DHT22;13446;50.926;5.332;2023-04-24T04:08:21;10.50;99.90
25554;DHT22;13446;50.926;5.332;2023-04-24T04:10:47;10.30;99.90
25554;DHT22;13446;50.926;5.332;2023-04-24T04:13:13;10.40;99.90
25554;DHT22;13446;50.926;5.332;2023-04-24T04:15:38;10.50;99.90
25554;DHT22;13446;50.926;5.332;2023-04-24T04:18:04;10.60;99.90
25554;DHT22;13446;50.926;5.332;2023-04-24T04:20:29;10.50;99.90
25554;DHT22;13446;50.926;5.332;2023-04-24T04:22:55;10.50;99.90
25554;DHT22;13446;50.926;5.332;2023-04-24T04:25:20;10.50;99.90
25554;DHT22;13446;50.926;5.332;2023-04-24T04:27:46;10.50;99.90
25554;DHT22;13446;50.926;5.332;2023-04-24T04:30:13;10.40;99.90
25554;DHT22;13446;50.926;5.332;2023-04-24T04:32:39;10.30;99.90
25554;DHT22;13446;50.926;5.332;2023-04-24T04:35:05;10.30;99.90
25554;DHT22;13446;50.926;5.332;2023-04-24T04:37:30;10.10;99.90
25554;DHT22;13446;50.926;5.332;2023-04-24T04:39:57;10.00;99.90
25554;DHT22;13446;50.926;5.332;2023-04-24T04:42:26;10.00;99.90
25554;DHT22;13446;50.926;5.332;2023-04-24T04:44:52;10.10;99.90
25554;DHT22;13446;50.926;5.332;2023-04-24T04:47:18;10.30;99.90
25554;DHT22;13446;50.926;5.332;2023-04-24T04:49:45;10.10;99.90
25554;DHT22;13446;50.926;5.332;2023-04-24T04:52:11;10.00;99.90
25554;DHT22;13446;50.926;5.332;2023-04-24T04:54:36;10.00;99.90
25554;DHT22;13446;50.926;5.332;2023-04-24T04:57:02;10.10;99.90
25554;DHT22;13446;50.926;5.332;2023-04-24T04:59:28;10.10;99.90
25554;DHT22;13446;50.926;5.332;2023-04-24T05:01:53;10.00;99.90
25554;DHT22;13446;50.926;5.332;2023-04-24T05:04:19;10.00;99.90
25554;DHT22;13446;50.926;5.332;2023-04-24T05:06:44;10.00;99.90
25554;DHT22;13446;50.926;5.332;2023-04-24T05:09:12;10.00;99.90
25554;DHT22;13446;50.926;5.332;2023-04-24T05:11:38;9.90;99.90
25554;DHT22;13446;50.926;5.332;2023-04-24T05:14:03;10.00;99.90
25554;DHT22;13446;50.926;5.332;2023-04-24T05:16:29;10.10;99.90
25554;DHT22;13446;50.926;5.332;2023-04-24T05:18:55;10.20;99.90
25554;DHT22;13446;50.926;5.332;2023-04-24T05:21:21;10.20;99.90
25554;DHT22;13446;50.926;5.332;2023-04-24T05:23:46;10.20;99.90
25554;DHT22;13446;50.926;5.332;2023-04-24T05:26:13;10.20;99.90
25554;DHT22;13446;50.926;5.332;2023-04-24T05:28:38;10.20;99.90
25554;DHT22;13446;50.926;5.332;2023-04-24T05:31:04;10.20;99.90
25554;DHT22;13446;50.926;5.332;2023-04-24T05:33:29;10.20;99.90
25554;DHT22;13446;50.926;5.332;2023-04-24T05:35:55;10.30;99.90
25554;DHT22;13446;50.926;5.332;2023-04-24T05:38:21;10.40;99.90
25554;DHT22;13446;50.926;5.332;2023-04-24T05:40:47;10.30;99.90
25554;DHT22;13446;50.926;5.332;2023-04-24T05:43:12;10.30;99.90
25554;DHT22;13446;50.926;5.332;2023-04-24T05:45:38;10.40;99.90
25554;DHT22;13446;50.926;5.332;2023-04-24T05:48:03;10.30;99.90
25554;DHT22;13446;50.926;5.332;2023-04-24T05:50:29;10.20;99.90
25554;DHT22;13446;50.926;5.332;2023-04-24T05:52:55;10.40;99.90
25554;DHT22;13446;50.926;5.332;2023-04-24T05:55:23;10.40;99.90
25554;DHT22;13446;50.926;5.332;2023-04-24T05:57:49;10.20;99.90
25554;DHT22;13446;50.926;5.332;2023-04-24T06:00:15;10.20;99.90
25554;DHT22;13446;50.926;5.332;2023-04-24T06:02:41;10.20;99.90
25554;DHT22;13446;50.926;5.332;2023-04-24T06:05:06;10.20;99.90
25554;DHT22;13446;50.926;5.332;2023-04-24T06:07:33;10.20;99.90
25554;DHT22;13446;50.926;5.332;2023-04-24T06:09:59;10.20;99.90
25554;DHT22;13446;50.926;5.332;2023-04-24T06:12:25;10.20;99.90
25554;DHT22;13446;50.926;5.332;2023-04-24T06:14:51;10.10;99.90
25554;DHT22;13446;50.926;5.332;2023-04-24T06:17:16;10.10;99.90
25554;DHT22;13446;50.926;5.332;2023-04-24T06:19:42;10.20;99.90
25554;DHT22;13446;50.926;5.332;2023-04-24T06:22:07;10.10;99.90
25554;DHT22;13446;50.926;5.332;2023-04-24T06:24:33;10.10;99.90
25554;DHT22;13446;50.926;5.332;2023-04-24T06:26:59;10.20;99.90
25554;DHT22;13446;50.926;5.332;2023-04-24T06:29:25;10.10;99.90
25554;DHT22;13446;50.926;5.332;2023-04-24T06:32:01;10.40;99.90
25554;DHT22;13446;50.926;5.332;2023-04-24T06:34:27;10.20;99.90
25554;DHT22;13446;50.926;5.332;2023-04-24T06:36:53;10.20;99.90
25554;DHT22;13446;50.926;5.332;2023-04-24T06:39:19;10.10;99.90
25554;DHT22;13446;50.926;5.332;2023-04-24T06:41:44;10.20;99.90
25554;DHT22;13446;50.926;5.332;2023-04-24T06:44:10;10.10;99.90
25554;DHT22;13446;50.926;5.332;2023-04-24T06:46:36;10.10;99.90
25554;DHT22;13446;50.926;5.332;2023-04-24T06:49:01;10.00;99.90
25554;DHT22;13446;50.926;5.332;2023-04-24T06:51:27;10.20;99.90
25554;DHT22;13446;50.926;5.332;2023-04-24T06:53:52;10.20;99.90
25554;DHT22;13446;50.926;5.332;2023-04-24T06:56:18;10.20;99.90
25554;DHT22;13446;50.926;5.332;2023-04-24T06:58:44;10.20;99.90
25554;DHT22;13446;50.926;5.332;2023-04-24T07:01:10;10.20;99.90
25554;DHT22;13446;50.926;5.332;2023-04-24T07:03:36;10.20;99.90
25554;DHT22;13446;50.926;5.332;2023-04-24T07:06:01;10.20;99.90
25554;DHT22;13446;50.926;5.332;2023-04-24T07:08:28;10.10;99.90
25554;DHT22;13446;50.926;5.332;2023-04-24T07:10:56;10.20;99.90
25554;DHT22;13446;50.926;5.332;2023-04-24T07:13:22;10.40;99.90
25554;DHT22;13446;50.926;5.332;2023-04-24T07:15:47;10.40;99.90
25554;DHT22;13446;50.926;5.332;2023-04-24T07:18:15;10.50;99.90
25554;DHT22;13446;50.926;5.332;2023-04-24T07:20:41;10.50;99.90
25554;DHT22;13446;50.926;5.332;2023-04-24T07:23:06;10.60;99.90
25554;DHT22;13446;50.926;5.332;2023-04-24T07:25:32;10.70;99.90
25554;DHT22;13446;50.926;5.332;2023-04-24T07:28:00;10.80;99.90
25554;DHT22;13446;50.926;5.332;2023-04-24T07:30:26;10.70;99.90
25554;DHT22;13446;50.926;5.332;2023-04-24T07:32:54;10.60;99.90
25554;DHT22;13446;50.926;5.332;2023-04-24T07:35:19;10.70;99.90
25554;DHT22;13446;50.926;5.332;2023-04-24T07:37:45;10.80;99.90
25554;DHT22;13446;50.926;5.332;2023-04-24T07:40:12;10.80;99.90
25554;DHT22;13446;50.926;5.332;2023-04-24T07:42:38;10.80;99.90
25554;DHT22;13446;50.926;5.332;2023-04-24T07:45:03;11.00;99.90
25554;DHT22;13446;50.926;5.332;2023-04-24T07:47:29;10.70;99.90
25554;DHT22;13446;50.926;5.332;2023-04-24T07:49:54;10.70;99.90
25554;DHT22;13446;50.926;5.332;2023-04-24T07:52:20;10.80;99.90
25554;DHT22;13446;50.926;5.332;2023-04-24T07:54:46;10.70;99.90
25554;DHT22;13446;50.926;5.332;2023-04-24T07:57:11;10.70;99.90
25554;DHT22;13446;50.926;5.332;2023-04-24T07:59:37;10.70;99.90
25554;DHT22;13446;50.926;5.332;2023-04-24T08:02:02;10.70;99.90
25554;DHT22;13446;50.926;5.332;2023-04-24T08:04:28;10.70;99.90
25554;DHT22;13446;50.926;5.332;2023-04-24T08:06:53;10.70;99.90
25554;DHT22;13446;50.926;5.332;2023-04-24T08:09:19;10.80;99.90
25554;DHT22;13446;50.926;5.332;2023-04-24T08:11:44;10.80;99.90
25554;DHT22;13446;50.926;5.332;2023-04-24T08:14:10;10.80;99.90
25554;DHT22;13446;50.926;5.332;2023-04-24T08:16:38;10.70;99.90
25554;DHT22;13446;50.926;5.332;2023-04-24T08:19:03;10.80;99.90
25554;DHT22;13446;50.926;5.332;2023-04-24T08:21:29;10.70;99.90
25554;DHT22;13446;50.926;5.332;2023-04-24T08:23:55;10.70;99.90
25554;DHT22;13446;50.926;5.332;2023-04-24T08:26:20;10.80;99.90
25554;DHT22;13446;50.926;5.332;2023-04-24T08:28:46;10.90;99.90
25554;DHT22;13446;50.926;5.332;2023-04-24T08:31:11;10.90;99.90
25554;DHT22;13446;50.926;5.332;2023-04-24T08:33:37;11.10;99.90
25554;DHT22;13446;50.926;5.332;2023-04-24T08:36:03;11.30;99.90
25554;DHT22;13446;50.926;5.332;2023-04-24T08:38:29;11.50;99.90
25554;DHT22;13446;50.926;5.332;2023-04-24T08:40:54;11.50;99.90
25554;DHT22;13446;50.926;5.332;2023-04-24T08:43:22;11.60;99.90
25554;DHT22;13446;50.926;5.332;2023-04-24T08:45:48;11.90;99.90
25554;DHT22;13446;50.926;5.332;2023-04-24T08:48:14;12.20;99.90
25554;DHT22;13446;50.926;5.332;2023-04-24T08:50:40;12.20;99.90
25554;DHT22;13446;50.926;5.332;2023-04-24T08:53:08;12.50;99.90
25554;DHT22;13446;50.926;5.332;2023-04-24T08:55:34;12.70;99.90
25554;DHT22;13446;50.926;5.332;2023-04-24T08:58:00;12.90;99.90
25554;DHT22;13446;50.926;5.332;2023-04-24T09:00:28;12.90;99.90
25554;DHT22;13446;50.926;5.332;2023-04-24T09:02:53;12.90;99.90
25554;DHT22;13446;50.926;5.332;2023-04-24T09:05:19;12.50;99.90
25554;DHT22;13446;50.926;5.332;2023-04-24T09:07:54;12.40;99.90
25554;DHT22;13446;50.926;5.332;2023-04-24T09:10:23;12.40;99.90
25554;DHT22;13446;50.926;5.332;2023-04-24T09:12:52;12.30;99.90
25554;DHT22;13446;50.926;5.332;2023-04-24T09:15:18;12.20;99.90
25554;DHT22;13446;50.926;5.332;2023-04-24T09:17:45;12.00;99.90
25554;DHT22;13446;50.926;5.332;2023-04-24T09:20:11;11.80;99.90
25554;DHT22;13446;50.926;5.332;2023-04-24T09:22:37;11.80;99.90
25554;DHT22;13446;50.926;5.332;2023-04-24T09:25:03;12.00;99.90
25554;DHT22;13446;50.926;5.332;2023-04-24T09:27:30;11.90;99.90
25554;DHT22;13446;50.926;5.332;2023-04-24T09:29:56;12.10;99.90
25554;DHT22;13446;50.926;5.332;2023-04-24T09:32:23;12.50;99.90
25554;DHT22;13446;50.926;5.332;2023-04-24T09:35:12;12.90;99.90
25554;DHT22;13446;50.926;5.332;2023-04-24T09:37:37;13.20;99.90
25554;DHT22;13446;50.926;5.332;2023-04-24T09:42:37;14.10;99.90
25554;DHT22;13446;50.926;5.332;2023-04-24T09:45:03;14.40;99.90
25554;DHT22;13446;50.926;5.332;2023-04-24T09:47:35;15.00;99.90
25554;DHT22;13446;50.926;5.332;2023-04-24T09:50:08;16.50;99.90
25554;DHT22;13446;50.926;5.332;2023-04-24T09:52:34;17.60;99.90
25554;DHT22;13446;50.926;5.332;2023-04-24T09:55:00;17.50;99.90
25554;DHT22;13446;50.926;5.332;2023-04-24T09:57:25;17.70;99.90
25554;DHT22;13446;50.926;5.332;2023-04-24T09:59:53;17.50;99.90
25554;DHT22;13446;50.926;5.332;2023-04-24T10:02:19;17.40;99.90
25554;DHT22;13446;50.926;5.332;2023-04-24T10:04:54;16.70;99.90
25554;DHT22;13446;50.926;5.332;2023-04-24T10:07:21;16.70;99.90
25554;DHT22;13446;50.926;5.332;2023-04-24T10:09:46;17.90;99.90
25554;DHT22;13446;50.926;5.332;2023-04-24T10:12:12;18.20;99.90
25554;DHT22;13446;50.926;5.332;2023-04-24T10:14:38;18.10;99.90
25554;DHT22;13446;50.926;5.332;2023-04-24T10:17:03;17.90;99.90
25554;DHT22;13446;50.926;5.332;2023-04-24T10:19:30;18.10;99.90
25554;DHT22;13446;50.926;5.332;2023-04-24T10:21:56;18.30;99.90
25554;DHT22;13446;50.926;5.332;2023-04-24T10:24:22;17.80;99.90
25554;DHT22;13446;50.926;5.332;2023-04-24T10:26:48;17.20;99.90
25554;DHT22;13446;50.926;5.332;2023-04-24T10:29:14;16.90;99.90
25554;DHT22;13446;50.926;5.332;2023-04-24T10:31:40;16.60;99.90
25554;DHT22;13446;50.926;5.332;2023-04-24T10:34:07;16.50;99.90
25554;DHT22;13446;50.926;5.332;2023-04-24T10:36:33;16.50;99.90
25554;DHT22;13446;50.926;5.332;2023-04-24T10:39:03;16.70;99.90
25554;DHT22;13446;50.926;5.332;2023-04-24T10:41:31;17.70;99.90
25554;DHT22;13446;50.926;5.332;2023-04-24T10:44:07;17.60;99.90
25554;DHT22;13446;50.926;5.332;2023-04-24T10:46:33;17.30;99.90
25554;DHT22;13446;50.926;5.332;2023-04-24T10:48:58;16.90;99.90
25554;DHT22;13446;50.926;5.332;2023-04-24T10:51:26;16.80;99.90
25554;DHT22;13446;50.926;5.332;2023-04-24T10:54:28;16.30;99.90
25554;DHT22;13446;50.926;5.332;2023-04-24T10:57:25;15.70;99.90
25554;DHT22;13446;50.926;5.332;2023-04-24T10:59:39;15.50;99.90
25554;DHT22;13446;50.926;5.332;2023-04-24T11:02:06;15.50;99.90
25554;DHT22;13446;50.926;5.332;2023-04-24T11:04:33;15.60;99.90
25554;DHT22;13446;50.926;5.332;2023-04-24T11:07:00;15.50;99.90
25554;DHT22;13446;50.926;5.332;2023-04-24T11:09:27;15.20;99.90
25554;DHT22;13446;50.926;5.332;2023-04-24T11:12:06;15.20;99.90
25554;DHT22;13446;50.926;5.332;2023-04-24T11:17:30;14.80;99.90
25554;DHT22;13446;50.926;5.332;2023-04-24T11:20:16;14.80;99.90
25554;DHT22;13446;50.926;5.332;2023-04-24T11:22:41;14.80;99.90
25554;DHT22;13446;50.926;5.332;2023-04-24T11:25:07;14.70;99.90
25554;DHT22;13446;50.926;5.332;2023-04-24T11:27:39;14.90;99.90
25554;DHT22;13446;50.926;5.332;2023-04-24T11:30:05;15.30;99.90
25554;DHT22;13446;50.926;5.332;2023-04-24T11:32:41;15.70;99.90
25554;DHT22;13446;50.926;5.332;2023-04-24T11:37:39;16.00;99.90
25554;DHT22;13446;50.926;5.332;2023-04-24T11:40:05;15.90;99.90
25554;DHT22;13446;50.926;5.332;2023-04-24T11:42:35;15.80;99.90
25554;DHT22;13446;50.926;5.332;2023-04-24T11:45:01;15.90;99.90
25554;DHT22;13446;50.926;5.332;2023-04-24T11:47:30;16.90;99.90
25554;DHT22;13446;50.926;5.332;2023-04-24T11:49:58;19.00;99.90
25554;DHT22;13446;50.926;5.332;2023-04-24T11:52:23;19.70;99.90
25554;DHT22;13446;50.926;5.332;2023-04-24T11:54:49;20.10;95.40
25554;DHT22;13446;50.926;5.332;2023-04-24T11:57:15;19.90;95.50
25554;DHT22;13446;50.926;5.332;2023-04-24T11:59:41;19.30;96.30
25554;DHT22;13446;50.926;5.332;2023-04-24T12:02:06;18.60;97.10
25554;DHT22;13446;50.926;5.332;2023-04-24T12:04:41;17.90;98.30
25554;DHT22;13446;50.926;5.332;2023-04-24T12:07:06;17.60;99.40
25554;DHT22;13446;50.926;5.332;2023-04-24T12:09:40;17.80;99.90
25554;DHT22;13446;50.926;5.332;2023-04-24T12:12:06;18.40;99.70
25554;DHT22;13446;50.926;5.332;2023-04-24T12:14:32;19.70;96.80
25554;DHT22;13446;50.926;5.332;2023-04-24T12:16:57;19.60;92.40
25554;DHT22;13446;50.926;5.332;2023-04-24T12:19:23;19.40;90.30
25554;DHT22;13446;50.926;5.332;2023-04-24T12:22:02;18.40;91.40
25554;DHT22;13446;50.926;5.332;2023-04-24T12:24:28;18.10;93.10
25554;DHT22;13446;50.926;5.332;2023-04-24T12:26:53;18.20;93.20
25554;DHT22;13446;50.926;5.332;2023-04-24T12:29:20;18.50;91.40
25554;DHT22;13446;50.926;5.332;2023-04-24T12:31:46;19.10;90.10
25554;DHT22;13446;50.926;5.332;2023-04-24T12:34:21;19.60;90.10
25554;DHT22;13446;50.926;5.332;2023-04-24T12:36:48;20.50;86.20
25554;DHT22;13446;50.926;5.332;2023-04-24T12:39:20;20.10;84.40
25554;DHT22;13446;50.926;5.332;2023-04-24T12:41:55;19.10;86.60
25554;DHT22;13446;50.926;5.332;2023-04-24T12:44:28;18.60;90.80
25554;DHT22;13446;50.926;5.332;2023-04-24T12:46:54;17.70;92.00
25554;DHT22;13446;50.926;5.332;2023-04-24T12:49:19;17.80;92.50
25554;DHT22;13446;50.926;5.332;2023-04-24T12:51:45;18.00;91.20
25554;DHT22;13446;50.926;5.332;2023-04-24T12:54:11;17.70;90.40
25554;DHT22;13446;50.926;5.332;2023-04-24T12:56:37;17.40;91.10
25554;DHT22;13446;50.926;5.332;2023-04-24T12:59:04;17.30;92.60
25554;DHT22;13446;50.926;5.332;2023-04-24T13:01:30;17.60;93.30
25554;DHT22;13446;50.926;5.332;2023-04-24T13:03:56;18.00;92.80
25554;DHT22;13446;50.926;5.332;2023-04-24T13:06:21;18.00;93.00
25554;DHT22;13446;50.926;5.332;2023-04-24T13:08:47;17.70;92.50
25554;DHT22;13446;50.926;5.332;2023-04-24T13:11:13;17.40;94.00
25554;DHT22;13446;50.926;5.332;2023-04-24T13:13:39;17.70;94.50
25554;DHT22;13446;50.926;5.332;2023-04-24T13:16:05;18.00;94.20
25554;DHT22;13446;50.926;5.332;2023-04-24T13:18:30;18.30;92.90
25554;DHT22;13446;50.926;5.332;2023-04-24T13:20:56;18.60;93.70
25554;DHT22;13446;50.926;5.332;2023-04-24T13:23:22;19.00;92.20
25554;DHT22;13446;50.926;5.332;2023-04-24T13:25:48;19.40;91.50
25554;DHT22;13446;50.926;5.332;2023-04-24T13:28:13;19.30;90.80
25554;DHT22;13446;50.926;5.332;2023-04-24T13:30:39;19.00;90.20
25554;DHT22;13446;50.926;5.332;2023-04-24T13:33:04;18.90;90.80
25554;DHT22;13446;50.926;5.332;2023-04-24T13:35:30;19.10;90.90
25554;DHT22;13446;50.926;5.332;2023-04-24T13:37:57;19.20;90.50
25554;DHT22;13446;50.926;5.332;2023-04-24T13:40:22;19.10;91.60
25554;DHT22;13446;50.926;5.332;2023-04-24T13:42:48;19.30;91.00
25554;DHT22;13446;50.926;5.332;2023-04-24T13:45:13;18.90;90.80
25554;DHT22;13446;50.926;5.332;2023-04-24T13:47:39;18.60;91.50
25554;DHT22;13446;50.926;5.332;2023-04-24T13:50:09;18.50;92.10
25554;DHT22;13446;50.926;5.332;2023-04-24T13:52:35;18.20;91.80
25554;DHT22;13446;50.926;5.332;2023-04-24T13:55:00;18.20;92.30
25554;DHT22;13446;50.926;5.332;2023-04-24T13:57:26;18.20;92.40
25554;DHT22;13446;50.926;5.332;2023-04-24T13:59:53;17.90;93.00
25554;DHT22;13446;50.926;5.332;2023-04-24T14:02:20;17.60;91.80
25554;DHT22;13446;50.926;5.332;2023-04-24T14:04:46;17.50;93.10
25554;DHT22;13446;50.926;5.332;2023-04-24T14:07:13;17.40;92.90
25554;DHT22;13446;50.926;5.332;2023-04-24T14:09:39;17.40;92.60
25554;DHT22;13446;50.926;5.332;2023-04-24T14:12:04;17.50;92.90
25554;DHT22;13446;50.926;5.332;2023-04-24T14:14:31;17.60;92.30
25554;DHT22;13446;50.926;5.332;2023-04-24T14:16:56;17.40;91.60
25554;DHT22;13446;50.926;5.332;2023-04-24T14:19:22;17.50;91.40
25554;DHT22;13446;50.926;5.332;2023-04-24T14:21:48;17.60;91.80
25554;DHT22;13446;50.926;5.332;2023-04-24T14:24:13;17.60;91.80
25554;DHT22;13446;50.926;5.332;2023-04-24T14:26:39;17.70;91.70
25554;DHT22;13446;50.926;5.332;2023-04-24T14:29:05;17.70;91.70
25554;DHT22;13446;50.926;5.332;2023-04-24T14:31:31;17.80;91.20
25554;DHT22;13446;50.926;5.332;2023-04-24T14:33:57;17.50;91.30
25554;DHT22;13446;50.926;5.332;2023-04-24T14:36:23;17.50;92.00
25554;DHT22;13446;50.926;5.332;2023-04-24T14:38:49;17.70;91.40
25554;DHT22;13446;50.926;5.332;2023-04-24T14:41:14;17.20;91.20
25554;DHT22;13446;50.926;5.332;2023-04-24T14:43:40;17.30;91.60
25554;DHT22;13446;50.926;5.332;2023-04-24T14:46:05;17.30;91.00
25554;DHT22;13446;50.926;5.332;2023-04-24T14:48:31;17.60;91.80
25554;DHT22;13446;50.926;5.332;2023-04-24T14:50:57;17.60;91.10
25554;DHT22;13446;50.926;5.332;2023-04-24T14:53:22;17.80;90.90
25554;DHT22;13446;50.926;5.332;2023-04-24T14:55:48;17.90;90.70
25554;DHT22;13446;50.926;5.332;2023-04-24T14:58:13;17.70;90.30
25554;DHT22;13446;50.926;5.332;2023-04-24T15:00:39;17.70;90.50
25554;DHT22;13446;50.926;5.332;2023-04-24T15:03:05;17.70;90.50
25554;DHT22;13446;50.926;5.332;2023-04-24T15:05:30;17.60;90.50
25554;DHT22;13446;50.926;5.332;2023-04-24T15:07:56;17.40;90.40
25554;DHT22;13446;50.926;5.332;2023-04-24T15:10:22;17.30;91.80
25554;DHT22;13446;50.926;5.332;2023-04-24T15:12:49;17.50;92.30
25554;DHT22;13446;50.926;5.332;2023-04-24T15:15:14;17.70;91.80
25554;DHT22;13446;50.926;5.332;2023-04-24T15:17:40;17.60;90.50
25554;DHT22;13446;50.926;5.332;2023-04-24T15:20:06;17.50;90.10
25554;DHT22;13446;50.926;5.332;2023-04-24T15:22:32;17.20;91.00
25554;DHT22;13446;50.926;5.332;2023-04-24T15:24:58;17.20;91.40
25554;DHT22;13446;50.926;5.332;2023-04-24T15:27:24;17.30;91.70
25554;DHT22;13446;50.926;5.332;2023-04-24T15:29:49;17.50;91.30
25554;DHT22;13446;50.926;5.332;2023-04-24T15:32:15;17.60;90.90